Time;durP1;ratioP1;P1;durP2;ratioP2;P2;SDS_P1;SDS_P2;PMS_P1;PMS_P2;Temp;Humidity;BMP_temperature;BMP_pressure;BME280_temperature;BME280_humidity;BME280_pressure;Samples;Min_cycle;Max_cycle;Signal;HPM_P1;HPM_P2
2022/03/11 00:01:56;;;;;;;10.32;7.35;;;;;;;;;;4987134;28;20277;-80
2022/03/11 00:04:22;;;;;;;8.55;7.30;;;;;;;;;;4984974;28;20294;-80
2022/03/11 00:06:48;;;;;;;9.13;8.13;;;;;;;;;;4988379;28;20255;-81
2022/03/11 00:09:14;;;;;;;10.57;7.47;;;;;;;;;;4987166;28;20183;-81
2022/03/11 00:11:40;;;;;;;10.13;7.78;;;;;;;;;;4986042;28;20182;-81
2022/03/11 00:14:06;;;;;;;11.13;8.05;;;;;;;;;;4998432;28;20202;-81
2022/03/11 00:16:34;;;;;;;11.52;8.15;;;;;;;;;;4995967;28;20214;-81
2022/03/11 00:19:00;;;;;;;12.20;8.88;;;;;;;;;;4993001;28;20186;-81
2022/03/11 00:21:26;;;;;;;11.90;8.68;;;;;;;;;;4997793;28;20187;-81
2022/03/11 00:23:52;;;;;;;13.27;10.02;;;;;;;;;;4999992;28;20210;-81
2022/03/11 00:26:18;;;;;;;12.13;8.15;;;;;;;;;;5001195;28;20191;-81
2022/03/11 00:28:44;;;;;;;11.20;9.98;;;;;;;;;;5003600;28;20179;-80
2022/03/11 00:31:10;;;;;;;12.55;10.30;;;;;;;;;;5003940;28;20598;-81
2022/03/11 00:33:36;;;;;;;10.60;8.23;;;;;;;;;;5017852;28;20190;-81
2022/03/11 00:36:02;;;;;;;11.52;8.57;;;;;;;;;;5012844;28;20217;-80
2022/03/11 00:38:28;;;;;;;10.77;8.45;;;;;;;;;;5006894;28;20251;-81
2022/03/11 00:40:56;;;;;;;9.73;8.65;;;;;;;;;;4996281;28;20194;-80
2022/03/11 00:43:26;;;;;;;10.13;8.02;;;;;;;;;;5002590;28;20211;-80
2022/03/11 00:45:53;;;;;;;8.55;7.38;;;;;;;;;;5014871;28;20408;-80
2022/03/11 00:48:20;;;;;;;9.68;7.80;;;;;;;;;;5000965;28;20211;-81
2022/03/11 00:50:46;;;;;;;11.00;8.77;;;;;;;;;;5003027;28;20266;-81
2022/03/11 00:53:12;;;;;;;9.68;7.90;;;;;;;;;;5012983;28;20254;-80
2022/03/11 00:55:38;;;;;;;12.18;9.02;;;;;;;;;;4997905;28;20187;-80
2022/03/11 00:58:05;;;;;;;12.90;8.98;;;;;;;;;;5003466;28;20251;-80
2022/03/11 01:00:31;;;;;;;12.23;8.70;;;;;;;;;;5003499;28;20206;-80
2022/03/11 01:02:57;;;;;;;11.45;8.45;;;;;;;;;;5016762;28;20191;-80
2022/03/11 01:05:23;;;;;;;10.25;8.52;;;;;;;;;;5000351;28;20238;-81
2022/03/11 01:07:50;;;;;;;9.25;8.15;;;;;;;;;;4989188;28;20190;-81
2022/03/11 01:10:16;;;;;;;9.88;8.00;;;;;;;;;;5003373;28;20263;-80
2022/03/11 01:12:42;;;;;;;11.05;8.05;;;;;;;;;;5020113;28;20179;-81
2022/03/11 01:15:09;;;;;;;9.23;8.05;;;;;;;;;;5017296;28;20584;-81
2022/03/11 01:17:36;;;;;;;12.13;7.80;;;;;;;;;;5001746;28;20187;-81
2022/03/11 01:20:03;;;;;;;9.35;8.25;;;;;;;;;;4993143;28;20179;-81
2022/03/11 01:22:29;;;;;;;9.75;7.45;;;;;;;;;;5005513;28;20188;-81
2022/03/11 01:24:55;;;;;;;13.48;7.43;;;;;;;;;;5007384;28;20206;-81
2022/03/11 01:27:21;;;;;;;8.98;7.32;;;;;;;;;;5000768;28;20187;-81
2022/03/11 01:29:47;;;;;;;11.32;8.35;;;;;;;;;;5005902;28;20189;-81
2022/03/11 01:32:13;;;;;;;11.80;8.48;;;;;;;;;;5015258;28;20657;-81
2022/03/11 01:34:40;;;;;;;9.98;7.03;;;;;;;;;;4989972;28;20251;-81
2022/03/11 01:37:06;;;;;;;9.82;8.20;;;;;;;;;;5022851;28;20171;-81
2022/03/11 01:39:35;;;;;;;9.85;7.70;;;;;;;;;;4994945;28;20233;-81
2022/03/11 01:42:01;;;;;;;10.60;7.70;;;;;;;;;;5000741;28;20193;-81
2022/03/11 01:44:27;;;;;;;9.30;7.18;;;;;;;;;;5002404;28;20226;-81
2022/03/11 01:46:54;;;;;;;6.63;5.97;;;;;;;;;;4991108;28;20243;-80
2022/03/11 01:49:20;;;;;;;10.15;6.60;;;;;;;;;;5019094;28;20182;-80
2022/03/11 01:51:47;;;;;;;7.40;5.97;;;;;;;;;;5022324;28;20179;-80
2022/03/11 01:54:13;;;;;;;10.15;7.32;;;;;;;;;;5016595;28;20568;-81
2022/03/11 01:56:40;;;;;;;9.57;7.28;;;;;;;;;;5020752;28;20194;-81
2022/03/11 01:59:06;;;;;;;7.50;6.10;;;;;;;;;;5020661;28;20199;-81
2022/03/11 02:01:33;;;;;;;10.63;7.20;;;;;;;;;;4987717;28;20195;-81
2022/03/11 02:03:59;;;;;;;10.25;7.38;;;;;;;;;;5006425;28;20206;-81
2022/03/11 02:06:26;;;;;;;8.68;6.20;;;;;;;;;;5016673;28;20213;-81
2022/03/11 02:08:53;;;;;;;8.75;7.82;;;;;;;;;;5016514;28;20187;-81
2022/03/11 02:11:19;;;;;;;9.38;6.55;;;;;;;;;;5016673;28;20445;-81
2022/03/11 02:13:49;;;;;;;8.63;7.25;;;;;;;;;;5004802;28;20186;-81
2022/03/11 02:16:17;;;;;;;9.63;7.15;;;;;;;;;;5003835;28;20191;-81
2022/03/11 02:18:43;;;;;;;8.13;7.30;;;;;;;;;;5016542;28;20179;-81
2022/03/11 02:21:09;;;;;;;10.48;8.02;;;;;;;;;;4995371;28;20278;-81
2022/03/11 02:23:44;;;;;;;8.85;6.90;;;;;;;;;;4996183;28;20230;-81
2022/03/11 02:26:11;;;;;;;9.18;8.07;;;;;;;;;;5001892;28;20182;-81
2022/03/11 02:28:37;;;;;;;10.88;7.93;;;;;;;;;;5019886;28;20190;-80
2022/03/11 02:31:03;;;;;;;10.32;8.18;;;;;;;;;;5004337;28;20175;-81
2022/03/11 02:33:29;;;;;;;8.48;7.28;;;;;;;;;;4999273;28;20191;-80
2022/03/11 02:35:55;;;;;;;10.80;8.10;;;;;;;;;;4998270;28;20272;-80
2022/03/11 02:38:21;;;;;;;12.18;8.23;;;;;;;;;;4994276;28;20251;-81
2022/03/11 02:40:47;;;;;;;11.10;8.63;;;;;;;;;;5017853;28;20179;-80
2022/03/11 02:43:13;;;;;;;9.98;7.90;;;;;;;;;;5004324;28;20202;-80
2022/03/11 02:45:39;;;;;;;10.93;7.80;;;;;;;;;;5003955;28;20214;-81
2022/03/11 02:48:05;;;;;;;10.85;8.57;;;;;;;;;;5004354;28;20190;-80
2022/03/11 02:50:32;;;;;;;11.65;8.60;;;;;;;;;;5012945;28;20227;-80
2022/03/11 02:52:58;;;;;;;10.27;8.68;;;;;;;;;;4992416;28;20203;-81
2022/03/11 02:55:24;;;;;;;13.15;9.00;;;;;;;;;;5003375;28;20663;-80
2022/03/11 02:57:50;;;;;;;9.90;8.52;;;;;;;;;;4992273;28;20180;-81
2022/03/11 03:00:16;;;;;;;11.73;8.27;;;;;;;;;;4999335;28;20219;-80
2022/03/11 03:02:42;;;;;;;8.50;7.57;;;;;;;;;;4996205;28;20184;-81
2022/03/11 03:05:08;;;;;;;9.48;8.55;;;;;;;;;;4999366;28;20254;-80
2022/03/11 03:07:34;;;;;;;10.43;7.07;;;;;;;;;;5002845;28;20186;-80
2022/03/11 03:10:00;;;;;;;8.00;7.10;;;;;;;;;;5004310;28;20194;-80
2022/03/11 03:12:26;;;;;;;11.93;7.32;;;;;;;;;;4992690;28;20249;-81
2022/03/11 03:14:53;;;;;;;9.32;6.90;;;;;;;;;;4990275;28;20227;-80
2022/03/11 03:17:19;;;;;;;9.82;7.80;;;;;;;;;;4993363;28;20194;-81
2022/03/11 03:19:45;;;;;;;10.80;8.00;;;;;;;;;;5017347;28;20191;-80
2022/03/11 03:22:12;;;;;;;7.63;6.72;;;;;;;;;;5013091;28;20250;-80
2022/03/11 03:24:38;;;;;;;10.27;8.25;;;;;;;;;;4992022;28;20208;-80
2022/03/11 03:27:04;;;;;;;8.25;7.38;;;;;;;;;;4995670;28;20250;-80
2022/03/11 03:29:30;;;;;;;10.90;7.93;;;;;;;;;;5001018;28;20179;-80
2022/03/11 03:31:58;;;;;;;10.85;7.55;;;;;;;;;;5003280;28;20686;-81
2022/03/11 03:34:34;;;;;;;8.65;7.10;;;;;;;;;;5017611;28;20562;-80
2022/03/11 03:37:01;;;;;;;9.30;7.43;;;;;;;;;;5017003;28;20259;-80
2022/03/11 03:39:27;;;;;;;8.02;7.15;;;;;;;;;;5003534;28;20252;-81
2022/03/11 03:41:54;;;;;;;10.60;8.35;;;;;;;;;;5001933;28;20187;-80
2022/03/11 03:44:20;;;;;;;11.70;7.43;;;;;;;;;;5000786;28;20215;-81
2022/03/11 03:46:47;;;;;;;10.07;7.45;;;;;;;;;;4989313;28;20187;-80
2022/03/11 03:49:13;;;;;;;11.40;7.57;;;;;;;;;;5018337;28;20180;-80
2022/03/11 03:51:39;;;;;;;11.25;7.45;;;;;;;;;;5004373;28;20266;-80
2022/03/11 03:54:06;;;;;;;9.77;7.13;;;;;;;;;;5012973;28;20179;-81
2022/03/11 03:56:34;;;;;;;10.25;7.50;;;;;;;;;;5003287;28;20247;-81
2022/03/11 03:59:04;;;;;;;11.48;7.70;;;;;;;;;;5014635;28;20325;-81
2022/03/11 04:01:30;;;;;;;9.75;7.43;;;;;;;;;;5018521;28;20190;-80
2022/03/11 04:03:56;;;;;;;9.43;6.95;;;;;;;;;;4990348;28;20705;-81
2022/03/11 04:06:22;;;;;;;7.93;7.07;;;;;;;;;;5002289;28;20210;-80
2022/03/11 04:08:48;;;;;;;8.55;6.88;;;;;;;;;;5002400;28;20183;-81
2022/03/11 04:11:14;;;;;;;9.88;8.48;;;;;;;;;;5000422;28;20178;-81
2022/03/11 04:13:40;;;;;;;10.73;8.48;;;;;;;;;;4988824;28;20187;-81
2022/03/11 04:16:06;;;;;;;13.50;8.50;;;;;;;;;;5002166;28;20179;-80
2022/03/11 04:18:33;;;;;;;9.90;7.43;;;;;;;;;;4992492;28;20188;-81
2022/03/11 04:20:59;;;;;;;10.45;6.95;;;;;;;;;;4997946;28;20203;-81
2022/03/11 04:23:25;;;;;;;10.35;8.35;;;;;;;;;;5018470;28;20462;-81
2022/03/11 04:25:51;;;;;;;8.60;7.47;;;;;;;;;;5001683;28;20179;-81
2022/03/11 04:28:18;;;;;;;8.45;6.85;;;;;;;;;;5018516;28;20178;-80
2022/03/11 04:30:44;;;;;;;9.20;6.95;;;;;;;;;;5003378;28;20182;-80
2022/03/11 04:33:10;;;;;;;11.27;8.30;;;;;;;;;;4993955;28;20230;-80
2022/03/11 04:35:36;;;;;;;9.50;7.00;;;;;;;;;;4990879;28;20184;-81
2022/03/11 04:38:02;;;;;;;8.35;6.47;;;;;;;;;;5000739;28;20209;-81
2022/03/11 04:40:29;;;;;;;9.73;6.75;;;;;;;;;;5002996;28;20195;-80
2022/03/11 04:42:54;;;;;;;10.18;7.05;;;;;;;;;;5004431;28;20191;-80
2022/03/11 04:45:20;;;;;;;9.23;6.78;;;;;;;;;;5011846;28;20245;-80
2022/03/11 04:47:47;;;;;;;8.57;6.90;;;;;;;;;;5020356;28;20190;-81
2022/03/11 04:50:13;;;;;;;7.82;6.85;;;;;;;;;;4997789;28;20186;-81
2022/03/11 04:52:39;;;;;;;7.28;6.55;;;;;;;;;;5024772;28;20183;-80
2022/03/11 04:55:05;;;;;;;7.18;5.95;;;;;;;;;;4993824;28;20558;-80
2022/03/11 04:57:31;;;;;;;8.27;6.22;;;;;;;;;;5008169;28;20178;-80
2022/03/11 04:59:57;;;;;;;8.13;5.43;;;;;;;;;;5017026;28;20202;-80
2022/03/11 05:02:27;;;;;;;7.35;6.53;;;;;;;;;;5002669;28;20449;-80
2022/03/11 05:04:53;;;;;;;6.47;5.47;;;;;;;;;;5021139;28;20567;-80
2022/03/11 05:07:19;;;;;;;6.28;5.65;;;;;;;;;;5009578;28;20697;-80
2022/03/11 05:09:45;;;;;;;7.50;6.10;;;;;;;;;;5021653;28;20182;-80
2022/03/11 05:12:11;;;;;;;8.68;5.70;;;;;;;;;;5012577;28;20434;-80
2022/03/11 05:14:38;;;;;;;7.63;5.95;;;;;;;;;;5017396;28;20194;-81
2022/03/11 05:17:04;;;;;;;14.10;5.25;;;;;;;;;;5019281;28;20206;-81
2022/03/11 05:19:30;;;;;;;7.38;5.30;;;;;;;;;;5024319;28;20191;-81
2022/03/11 05:21:56;;;;;;;7.15;4.93;;;;;;;;;;5022245;28;20179;-80
2022/03/11 05:24:22;;;;;;;5.97;5.38;;;;;;;;;;5022223;28;20679;-81
2022/03/11 05:26:48;;;;;;;9.30;6.05;;;;;;;;;;5019477;28;20544;-81
2022/03/11 05:29:15;;;;;;;5.22;4.72;;;;;;;;;;5009879;28;20214;-81
2022/03/11 05:31:41;;;;;;;4.60;4.20;;;;;;;;;;5022279;28;20222;-81
2022/03/11 05:34:08;;;;;;;5.40;4.85;;;;;;;;;;5019440;28;20655;-81
2022/03/11 05:36:35;;;;;;;4.65;4.15;;;;;;;;;;5010105;28;20232;-81
2022/03/11 05:39:01;;;;;;;4.85;4.35;;;;;;;;;;5007963;28;20691;-80
2022/03/11 05:41:27;;;;;;;7.80;4.60;;;;;;;;;;5008928;28;20210;-81
2022/03/11 05:43:53;;;;;;;5.00;4.50;;;;;;;;;;5009331;28;20207;-81
2022/03/11 05:46:19;;;;;;;4.30;3.80;;;;;;;;;;5022575;28;20711;-81
2022/03/11 05:48:45;;;;;;;5.00;4.18;;;;;;;;;;5009319;28;20175;-81
2022/03/11 05:51:11;;;;;;;4.88;4.20;;;;;;;;;;5019096;28;20582;-81
2022/03/11 05:53:37;;;;;;;4.90;4.30;;;;;;;;;;5003367;28;20243;-81
2022/03/11 05:56:04;;;;;;;4.97;4.35;;;;;;;;;;4996728;28;20261;-81
2022/03/11 05:58:30;;;;;;;5.97;4.57;;;;;;;;;;4990274;28;20186;-80
2022/03/11 06:00:56;;;;;;;4.95;4.03;;;;;;;;;;5021673;28;20175;-80
2022/03/11 06:03:22;;;;;;;5.60;3.90;;;;;;;;;;5015875;28;20238;-80
2022/03/11 06:05:48;;;;;;;5.03;3.80;;;;;;;;;;5014766;28;20210;-81
2022/03/11 06:08:14;;;;;;;4.82;4.18;;;;;;;;;;5003301;28;20652;-81
2022/03/11 06:10:40;;;;;;;4.87;4.03;;;;;;;;;;5004756;28;20198;-81
2022/03/11 06:13:06;;;;;;;4.93;3.63;;;;;;;;;;5021840;28;20429;-80
2022/03/11 06:15:32;;;;;;;6.22;4.05;;;;;;;;;;5004100;28;20176;-81
2022/03/11 06:17:58;;;;;;;4.68;3.95;;;;;;;;;;5015595;28;20241;-81
2022/03/11 06:20:25;;;;;;;5.70;4.80;;;;;;;;;;5018713;28;20190;-81
2022/03/11 06:22:55;;;;;;;4.40;4.00;;;;;;;;;;5004156;28;20409;-82
2022/03/11 06:25:21;;;;;;;5.50;3.88;;;;;;;;;;5003533;28;20313;-81
2022/03/11 06:27:47;;;;;;;5.18;3.90;;;;;;;;;;4993567;28;20175;-81
2022/03/11 06:30:14;;;;;;;8.70;4.13;;;;;;;;;;5001816;28;20545;-81
2022/03/11 06:32:41;;;;;;;4.90;3.92;;;;;;;;;;5003773;28;20661;-81
2022/03/11 06:35:07;;;;;;;3.78;3.35;;;;;;;;;;5003251;28;20183;-81
2022/03/11 06:37:33;;;;;;;4.72;3.90;;;;;;;;;;5008488;28;20202;-81
2022/03/11 06:39:59;;;;;;;4.38;3.20;;;;;;;;;;5020951;28;20278;-81
2022/03/11 06:42:25;;;;;;;5.70;4.05;;;;;;;;;;5004297;28;20191;-80
2022/03/11 06:44:51;;;;;;;3.65;3.35;;;;;;;;;;4998600;28;20290;-79
2022/03/11 06:47:17;;;;;;;4.00;3.40;;;;;;;;;;4993209;28;20535;-80
2022/03/11 06:49:43;;;;;;;4.03;3.10;;;;;;;;;;5004353;28;20468;-81
2022/03/11 06:52:09;;;;;;;4.60;3.80;;;;;;;;;;5019771;28;20171;-80
2022/03/11 06:54:35;;;;;;;3.45;3.15;;;;;;;;;;5021204;28;20187;-81
2022/03/11 06:57:01;;;;;;;4.78;3.78;;;;;;;;;;4997085;28;20184;-81
2022/03/11 06:59:27;;;;;;;3.40;2.97;;;;;;;;;;5002918;28;20728;-82
2022/03/11 07:01:53;;;;;;;3.90;3.00;;;;;;;;;;5015290;28;20469;-81
2022/03/11 07:04:19;;;;;;;3.47;2.67;;;;;;;;;;4996083;28;20203;-81
2022/03/11 07:06:45;;;;;;;4.13;3.17;;;;;;;;;;5016352;28;20175;-81
2022/03/11 07:09:11;;;;;;;5.20;3.47;;;;;;;;;;5001012;28;20266;-81
2022/03/11 07:11:37;;;;;;;3.25;2.95;;;;;;;;;;5010506;28;20680;-82
2022/03/11 07:14:03;;;;;;;3.85;3.50;;;;;;;;;;5014544;28;20190;-81
2022/03/11 07:16:29;;;;;;;3.75;3.38;;;;;;;;;;5017330;28;20322;-80
2022/03/11 07:18:55;;;;;;;6.50;2.92;;;;;;;;;;5017836;28;20176;-81
2022/03/11 07:21:21;;;;;;;5.75;3.10;;;;;;;;;;4997757;28;20189;-81
2022/03/11 07:23:54;;;;;;;3.15;2.92;;;;;;;;;;4992559;28;20203;-80
2022/03/11 07:26:20;;;;;;;3.78;3.22;;;;;;;;;;5001912;28;20187;-81
2022/03/11 07:28:46;;;;;;;4.53;3.55;;;;;;;;;;5002766;28;20182;-80
2022/03/11 07:31:12;;;;;;;5.00;3.10;;;;;;;;;;5002309;28;20583;-81
2022/03/11 07:33:38;;;;;;;4.00;3.30;;;;;;;;;;4991600;28;20438;-81
2022/03/11 07:36:04;;;;;;;3.88;3.45;;;;;;;;;;4991075;28;20188;-81
2022/03/11 07:38:33;;;;;;;3.38;3.08;;;;;;;;;;4994503;28;20222;-80
2022/03/11 07:40:59;;;;;;;4.05;3.42;;;;;;;;;;5004646;28;20189;-81
2022/03/11 07:43:26;;;;;;;4.63;3.63;;;;;;;;;;5003841;28;20211;-81
2022/03/11 07:45:52;;;;;;;4.93;3.40;;;;;;;;;;4990648;28;20176;-80
2022/03/11 07:48:19;;;;;;;3.17;2.70;;;;;;;;;;4992304;28;20184;-80
2022/03/11 07:50:45;;;;;;;3.55;3.00;;;;;;;;;;4991091;28;20184;-80
2022/03/11 07:53:11;;;;;;;5.57;3.10;;;;;;;;;;4994309;28;20171;-81
2022/03/11 07:55:37;;;;;;;4.22;2.85;;;;;;;;;;5003135;28;20246;-82
2022/03/11 07:58:04;;;;;;;3.30;3.00;;;;;;;;;;5020073;28;20171;-82
2022/03/11 08:00:30;;;;;;;4.20;3.13;;;;;;;;;;5014146;28;20189;-81
2022/03/11 08:02:56;;;;;;;3.05;2.60;;;;;;;;;;5014221;28;20208;-81
2022/03/11 08:05:22;;;;;;;4.50;3.38;;;;;;;;;;4993368;28;20295;-82
2022/03/11 08:07:49;;;;;;;4.40;2.65;;;;;;;;;;5014638;28;20175;-82
2022/03/11 08:10:15;;;;;;;3.58;3.22;;;;;;;;;;5012135;28;20199;-81
2022/03/11 08:12:42;;;;;;;4.53;3.03;;;;;;;;;;5018849;28;20171;-83
2022/03/11 08:15:11;;;;;;;2.63;2.42;;;;;;;;;;4999880;28;20191;-80
2022/03/11 08:17:38;;;;;;;3.17;2.70;;;;;;;;;;5003528;28;20179;-80
2022/03/11 08:20:05;;;;;;;3.97;2.60;;;;;;;;;;4999715;28;20180;-80
2022/03/11 08:22:34;;;;;;;3.60;3.20;;;;;;;;;;5001442;28;20183;-81
2022/03/11 08:25:00;;;;;;;3.63;3.00;;;;;;;;;;5018870;28;20203;-81
2022/03/11 08:27:26;;;;;;;3.05;2.85;;;;;;;;;;5003481;28;20192;-80
2022/03/11 08:29:53;;;;;;;2.92;2.63;;;;;;;;;;5003266;28;20210;-80
2022/03/11 08:32:19;;;;;;;3.10;2.40;;;;;;;;;;5013090;28;20167;-80
2022/03/11 08:34:45;;;;;;;2.90;2.47;;;;;;;;;;5014000;28;20194;-80
2022/03/11 08:37:11;;;;;;;2.85;2.47;;;;;;;;;;5011789;28;20187;-80
2022/03/11 08:39:37;;;;;;;3.70;2.67;;;;;;;;;;5015613;28;20221;-80
2022/03/11 08:42:03;;;;;;;2.65;2.45;;;;;;;;;;4991309;28;20283;-80
2022/03/11 08:44:29;;;;;;;2.72;2.47;;;;;;;;;;4992739;28;20223;-80
2022/03/11 08:46:55;;;;;;;3.43;2.37;;;;;;;;;;5016320;28;20191;-81
2022/03/11 08:49:21;;;;;;;2.40;2.20;;;;;;;;;;5002687;28;20427;-80
2022/03/11 08:51:47;;;;;;;2.47;2.27;;;;;;;;;;5004024;28;20179;-82
2022/03/11 08:54:13;;;;;;;2.08;1.90;;;;;;;;;;5013961;28;20435;-80
2022/03/11 08:56:40;;;;;;;2.03;1.65;;;;;;;;;;5016578;28;20206;-79
2022/03/11 08:59:06;;;;;;;2.42;2.05;;;;;;;;;;5003043;28;20250;-79
2022/03/11 09:01:32;;;;;;;2.30;2.10;;;;;;;;;;4993108;28;20187;-80
2022/03/11 09:03:58;;;;;;;2.55;1.98;;;;;;;;;;5015590;28;20244;-80
2022/03/11 09:06:24;;;;;;;3.00;1.97;;;;;;;;;;5032835;28;20195;-81
2022/03/11 09:08:50;;;;;;;3.08;2.78;;;;;;;;;;5002884;28;20437;-80
2022/03/11 09:11:16;;;;;;;2.40;2.08;;;;;;;;;;4998667;28;20179;-80
2022/03/11 09:13:43;;;;;;;3.60;2.45;;;;;;;;;;5012743;28;20215;-83
2022/03/11 09:16:09;;;;;;;3.28;1.90;;;;;;;;;;5000249;28;20183;-80
2022/03/11 09:18:35;;;;;;;3.35;1.90;;;;;;;;;;4991431;28;20219;-77
2022/03/11 09:21:01;;;;;;;4.28;2.03;;;;;;;;;;4997242;28;20253;-77
2022/03/11 09:23:27;;;;;;;3.17;2.10;;;;;;;;;;4998847;28;20222;-77
2022/03/11 09:25:54;;;;;;;3.13;2.33;;;;;;;;;;4989585;28;20184;-77
2022/03/11 09:28:20;;;;;;;2.00;1.60;;;;;;;;;;5002300;28;20203;-77
2022/03/11 09:30:46;;;;;;;1.92;1.70;;;;;;;;;;4990053;28;20176;-78
2022/03/11 09:33:12;;;;;;;1.92;1.70;;;;;;;;;;4999785;28;20191;-77
2022/03/11 09:35:38;;;;;;;1.92;1.67;;;;;;;;;;5001211;28;20219;-78
2022/03/11 09:38:05;;;;;;;2.58;2.00;;;;;;;;;;4993016;28;20237;-79
2022/03/11 09:40:32;;;;;;;2.90;1.77;;;;;;;;;;5021369;28;20206;-77
2022/03/11 09:42:58;;;;;;;1.70;1.50;;;;;;;;;;5007955;28;20179;-78
2022/03/11 09:45:26;;;;;;;2.25;1.60;;;;;;;;;;5015319;28;20191;-78
2022/03/11 09:47:53;;;;;;;2.33;1.60;;;;;;;;;;5005898;28;20182;-78
2022/03/11 09:50:19;;;;;;;2.20;2.00;;;;;;;;;;5016643;28;20183;-78
2022/03/11 09:52:47;;;;;;;1.90;1.60;;;;;;;;;;5019490;28;20245;-78
2022/03/11 09:55:13;;;;;;;2.67;1.45;;;;;;;;;;5021970;28;20179;-79
2022/03/11 09:57:39;;;;;;;2.13;1.92;;;;;;;;;;5000875;28;20171;-79
2022/03/11 10:00:05;;;;;;;2.08;1.88;;;;;;;;;;5015504;28;20201;-79
2022/03/11 10:02:32;;;;;;;2.40;2.00;;;;;;;;;;5013841;28;20255;-79
2022/03/11 10:04:58;;;;;;;1.83;1.73;;;;;;;;;;4993713;28;20215;-79
2022/03/11 10:07:28;;;;;;;2.35;2.13;;;;;;;;;;5004581;28;20287;-79
2022/03/11 10:09:55;;;;;;;2.35;1.58;;;;;;;;;;5022074;28;20179;-79
2022/03/11 10:12:25;;;;;;;2.10;1.90;;;;;;;;;;4996246;28;20188;-79
2022/03/11 10:14:59;;;;;;;1.83;1.55;;;;;;;;;;4997891;28;20183;-80
2022/03/11 10:17:25;;;;;;;2.22;1.67;;;;;;;;;;4998352;28;20716;-80
2022/03/11 10:19:55;;;;;;;2.05;1.50;;;;;;;;;;5019975;28;20246;-80
2022/03/11 10:22:24;;;;;;;1.58;1.48;;;;;;;;;;5020595;28;20187;-79
2022/03/11 10:24:50;;;;;;;1.70;1.58;;;;;;;;;;4993138;28;20223;-79
2022/03/11 10:27:16;;;;;;;2.00;1.30;;;;;;;;;;5001467;28;20190;-79
2022/03/11 10:29:43;;;;;;;2.25;1.50;;;;;;;;;;5018760;28;20250;-80
2022/03/11 10:32:09;;;;;;;3.65;1.98;;;;;;;;;;5007192;28;20179;-79
2022/03/11 10:34:36;;;;;;;1.70;1.55;;;;;;;;;;4988600;28;20214;-79
2022/03/11 10:37:02;;;;;;;2.80;2.10;;;;;;;;;;5021366;28;20202;-79
2022/03/11 10:39:38;;;;;;;2.40;1.90;;;;;;;;;;5015840;28;20215;-79
2022/03/11 10:42:13;;;;;;;3.05;2.22;;;;;;;;;;5017215;28;20187;-80
2022/03/11 10:44:40;;;;;;;3.10;2.05;;;;;;;;;;4996427;28;20230;-80
2022/03/11 10:47:19;;;;;;;3.38;1.90;;;;;;;;;;5002575;28;20203;-80
2022/03/11 10:49:49;;;;;;;2.53;2.30;;;;;;;;;;5003794;28;20198;-80
2022/03/11 10:52:15;;;;;;;2.90;2.65;;;;;;;;;;5020492;28;20175;-79
2022/03/11 10:54:43;;;;;;;2.05;1.80;;;;;;;;;;5020767;28;20179;-79
2022/03/11 10:57:10;;;;;;;2.90;1.92;;;;;;;;;;4996987;28;20196;-80
2022/03/11 10:59:37;;;;;;;2.63;2.10;;;;;;;;;;4995180;28;20214;-79
2022/03/11 11:02:03;;;;;;;2.30;1.90;;;;;;;;;;4999322;28;20242;-79
2022/03/11 11:04:29;;;;;;;3.20;2.40;;;;;;;;;;5001837;28;20233;-79
2022/03/11 11:06:56;;;;;;;2.33;2.05;;;;;;;;;;5017293;28;20363;-79
2022/03/11 11:09:23;;;;;;;2.45;1.95;;;;;;;;;;5018314;28;20210;-80
2022/03/11 11:11:50;;;;;;;2.83;2.40;;;;;;;;;;5014242;28;20183;-79
2022/03/11 11:14:16;;;;;;;5.88;2.40;;;;;;;;;;5016080;28;20665;-79
2022/03/11 11:16:43;;;;;;;2.80;2.42;;;;;;;;;;5017055;28;20707;-79
2022/03/11 11:19:10;;;;;;;4.22;2.80;;;;;;;;;;5020018;28;20171;-79
2022/03/11 11:21:39;;;;;;;2.83;2.42;;;;;;;;;;5019740;28;20186;-79
2022/03/11 11:24:05;;;;;;;3.78;2.00;;;;;;;;;;5015788;28;20203;-79
2022/03/11 11:26:31;;;;;;;3.47;2.33;;;;;;;;;;5011322;28;20255;-79
2022/03/11 11:29:00;;;;;;;4.47;2.25;;;;;;;;;;4990452;28;20641;-79
2022/03/11 11:31:26;;;;;;;2.40;2.20;;;;;;;;;;5018995;28;20187;-79
2022/03/11 11:33:52;;;;;;;2.00;1.85;;;;;;;;;;5005383;28;20191;-79
2022/03/11 11:36:38;;;;;;;3.33;3.05;;;;;;;;;;5004164;28;20241;-79
2022/03/11 11:39:06;;;;;;;2.60;2.20;;;;;;;;;;5001882;28;20277;-79
2022/03/11 11:41:33;;;;;;;2.80;2.40;;;;;;;;;;4999769;28;20180;-79
2022/03/11 11:44:01;;;;;;;2.15;1.95;;;;;;;;;;4990511;28;20256;-79
2022/03/11 11:46:28;;;;;;;2.22;2.03;;;;;;;;;;5017243;28;20203;-80
2022/03/11 11:48:54;;;;;;;3.88;2.72;;;;;;;;;;5002102;28;20179;-78
2022/03/11 11:51:21;;;;;;;5.87;2.90;;;;;;;;;;5014795;28;20183;-79
2022/03/11 11:53:54;;;;;;;2.80;2.50;;;;;;;;;;5003236;28;20437;-78
2022/03/11 11:56:29;;;;;;;3.60;2.00;;;;;;;;;;5010996;28;20254;-79
2022/03/11 11:58:56;;;;;;;4.32;3.00;;;;;;;;;;4990749;28;20602;-80
2022/03/11 12:01:40;;;;;;;3.17;2.63;;;;;;;;;;5017802;28;20202;-78
2022/03/11 12:04:27;;;;;;;5.45;3.00;;;;;;;;;;4999932;28;20238;-78
2022/03/11 12:06:55;;;;;;;3.83;2.80;;;;;;;;;;4988400;28;20647;-78
2022/03/11 12:09:45;;;;;;;3.08;2.80;;;;;;;;;;5002370;28;20210;-79
2022/03/11 12:12:32;;;;;;;4.22;2.95;;;;;;;;;;5014225;28;20182;-78
2022/03/11 12:14:58;;;;;;;4.55;3.00;;;;;;;;;;5014862;28;20218;-78
2022/03/11 12:17:36;;;;;;;3.60;2.92;;;;;;;;;;4999831;28;20195;-78
2022/03/11 12:20:21;;;;;;;5.20;3.15;;;;;;;;;;5015094;28;20187;-78
2022/03/11 12:22:57;;;;;;;3.38;2.60;;;;;;;;;;5003683;28;20250;-78
2022/03/11 12:25:24;;;;;;;3.33;2.65;;;;;;;;;;4997434;28;20342;-78
2022/03/11 12:28:00;;;;;;;2.92;2.70;;;;;;;;;;5015810;28;20254;-79
2022/03/11 12:30:27;;;;;;;3.67;3.10;;;;;;;;;;5006317;28;20207;-78
2022/03/11 12:32:53;;;;;;;3.88;2.85;;;;;;;;;;4997922;28;20179;-79
2022/03/11 12:35:20;;;;;;;4.10;3.35;;;;;;;;;;5012641;28;20187;-78
2022/03/11 12:37:46;;;;;;;4.10;3.53;;;;;;;;;;5002480;28;20194;-79
2022/03/11 12:40:12;;;;;;;5.63;4.17;;;;;;;;;;5005520;28;20237;-79
2022/03/11 12:42:40;;;;;;;4.35;3.20;;;;;;;;;;5018037;28;20430;-79
2022/03/11 12:45:06;;;;;;;4.88;3.40;;;;;;;;;;4998127;28;20291;-79
2022/03/11 12:47:39;;;;;;;3.13;2.70;;;;;;;;;;4999700;28;20180;-79
2022/03/11 12:50:07;;;;;;;3.50;3.20;;;;;;;;;;4999193;28;20187;-79
2022/03/11 12:52:36;;;;;;;4.43;3.20;;;;;;;;;;5000792;28;20183;-78
2022/03/11 12:55:03;;;;;;;4.78;3.78;;;;;;;;;;4999230;28;20190;-79
2022/03/11 12:57:29;;;;;;;5.00;3.33;;;;;;;;;;5001596;28;20222;-79
2022/03/11 12:59:55;;;;;;;3.92;3.53;;;;;;;;;;5002040;28;20190;-78
2022/03/11 13:02:21;;;;;;;5.18;3.03;;;;;;;;;;5008460;28;20190;-79
2022/03/11 13:04:47;;;;;;;3.40;3.08;;;;;;;;;;5016027;28;20262;-79
2022/03/11 13:07:19;;;;;;;3.83;3.10;;;;;;;;;;5019463;28;20179;-79
2022/03/11 13:09:45;;;;;;;6.43;3.75;;;;;;;;;;5021994;28;20422;-79
2022/03/11 13:12:22;;;;;;;2.87;2.67;;;;;;;;;;4997214;28;20193;-79
2022/03/11 13:14:48;;;;;;;4.45;3.22;;;;;;;;;;5006346;28;20534;-79
2022/03/11 13:17:14;;;;;;;4.10;3.70;;;;;;;;;;5015107;28;20567;-79
2022/03/11 13:19:44;;;;;;;4.93;3.22;;;;;;;;;;5019983;28;20446;-78
2022/03/11 13:22:12;;;;;;;4.88;3.72;;;;;;;;;;5021157;28;20184;-78
2022/03/11 13:24:38;;;;;;;6.05;3.72;;;;;;;;;;5006502;28;20191;-78
2022/03/11 13:27:08;;;;;;;3.72;3.33;;;;;;;;;;5001924;28;20195;-78
2022/03/11 13:29:43;;;;;;;3.03;2.65;;;;;;;;;;5005799;28;20191;-78
2022/03/11 13:32:09;;;;;;;3.42;3.13;;;;;;;;;;5006187;28;20190;-79
2022/03/11 13:34:35;;;;;;;4.90;3.50;;;;;;;;;;4998379;28;20183;-79
2022/03/11 13:37:11;;;;;;;3.58;3.17;;;;;;;;;;5019677;28;20196;-79
2022/03/11 13:39:38;;;;;;;4.22;3.22;;;;;;;;;;5021939;28;20645;-78
2022/03/11 13:42:04;;;;;;;3.78;3.20;;;;;;;;;;5003842;28;20183;-78
2022/03/11 13:44:38;;;;;;;6.18;3.00;;;;;;;;;;5002515;28;20211;-78
2022/03/11 13:47:06;;;;;;;5.65;3.10;;;;;;;;;;5004367;28;20573;-78
2022/03/11 13:49:39;;;;;;;4.13;3.10;;;;;;;;;;5019956;28;20190;-78
2022/03/11 13:52:05;;;;;;;3.63;3.30;;;;;;;;;;5006405;28;20198;-77
2022/03/11 13:54:34;;;;;;;4.30;3.30;;;;;;;;;;5014048;28;20193;-78
2022/03/11 13:57:19;;;;;;;2.83;2.63;;;;;;;;;;5004349;28;20218;-78
2022/03/11 13:59:46;;;;;;;3.97;3.50;;;;;;;;;;5019125;28;20184;-78
2022/03/11 14:02:13;;;;;;;3.92;3.00;;;;;;;;;;5003935;28;20210;-78
2022/03/11 14:04:39;;;;;;;3.35;3.05;;;;;;;;;;5005610;28;20213;-78
2022/03/11 14:07:12;;;;;;;4.22;3.58;;;;;;;;;;5021148;28;20174;-79
2022/03/11 14:09:38;;;;;;;5.68;3.33;;;;;;;;;;5018622;28;20184;-79
2022/03/11 14:12:05;;;;;;;3.55;3.00;;;;;;;;;;5002962;28;20189;-79
2022/03/11 14:14:31;;;;;;;6.20;4.00;;;;;;;;;;4996176;28;20195;-79
2022/03/11 14:17:02;;;;;;;3.85;3.47;;;;;;;;;;5002970;28;20258;-79
2022/03/11 14:19:28;;;;;;;4.50;4.10;;;;;;;;;;5019719;28;20198;-78
2022/03/11 14:21:54;;;;;;;4.95;3.22;;;;;;;;;;5020706;28;20188;-79
2022/03/11 14:24:21;;;;;;;6.60;4.35;;;;;;;;;;5005411;28;20207;-79
2022/03/11 14:26:47;;;;;;;4.05;3.25;;;;;;;;;;5002414;28;20277;-80
2022/03/11 14:29:14;;;;;;;3.67;3.25;;;;;;;;;;5013261;28;20639;-80
2022/03/11 14:31:40;;;;;;;5.10;3.88;;;;;;;;;;5004947;28;20192;-80
2022/03/11 14:34:06;;;;;;;4.40;3.80;;;;;;;;;;5006386;28;20199;-80
2022/03/11 14:36:32;;;;;;;5.88;3.83;;;;;;;;;;5004465;28;20211;-80
2022/03/11 14:38:58;;;;;;;7.43;4.60;;;;;;;;;;5004880;28;20290;-80
2022/03/11 14:41:26;;;;;;;4.07;3.10;;;;;;;;;;5016591;28;20668;-80